WXForecasting.com
Aberdeen, SD - Weather Station Data
 
Daily Summary for May 31, 2016 Units:  English    Metric   Both
« Previous Day
Next Day »
Daily Weekly Monthly Yearly Custom
  Current: High: Low: Average:
Temperature: 67.4 °F 67.6 °F 55.5 °F 61 °F
Dew Point: 49.0 °F 57.0 °F 47.0 °F 51.7 °F
Humidity: 52 % 90 % 49 % 73 %
Wind Speed: 9.0 mph 17.0 mph 0.0 mph 5 mph
Wind Gust: 20.0 mph 27.0 mph - -
Wind:WSW - - SSW
Pressure: 29.70 in 29.74 in 29.67 in -
Precipitation: 0.01 in      
Historical Graphs
 
 
Tabular Data for May 31, 2016
Time Temperature Dew Point Pressure Wind Wind Speed Wind Gust Humidity Rainfall Rate (Hourly) solar Conditions
00:12 59.8 °F 57.0 °F 29.68 in Calm   3.0 mph 89 % 0.00 in 0 W/m2
00:42 59.5 °F 57.0 °F 29.68 in Calm   2.0 mph 90 % 0.00 in 0 W/m2
00:57 59.4 °F 56.0 °F 29.69 in SSW 1.0 mph 2.0 mph 89 % 0.00 in 0 W/m2
01:12 58.9 °F 56.0 °F 29.69 in Calm   6.0 mph 89 % 0.00 in 0 W/m2
01:43 58.2 °F 55.0 °F 29.67 in Calm   4.0 mph 89 % 0.01 in 0 W/m2
01:58 58.2 °F 55.0 °F 29.68 in Calm   3.0 mph 89 % 0.01 in 0 W/m2
02:13 59.0 °F 56.0 °F 29.68 in SSW 2.0 mph 6.0 mph 89 % 0.01 in 0 W/m2
02:28 59.6 °F 56.0 °F 29.69 in West 4.0 mph 6.0 mph 88 % 0.00 in 0 W/m2
02:43 59.9 °F 56.0 °F 29.69 in Calm   6.0 mph 88 % 0.00 in 0 W/m2
03:13 60.1 °F 56.0 °F 29.68 in North 3.0 mph 6.0 mph 87 % 0.00 in 0 W/m2
03:43 59.4 °F 55.0 °F 29.68 in SSW 3.0 mph 7.0 mph 86 % 0.00 in 0 W/m2
03:58 58.8 °F 55.0 °F 29.70 in SSW 1.0 mph 5.0 mph 86 % 0.00 in 0 W/m2
04:13 58.8 °F 55.0 °F 29.69 in SW 1.0 mph 7.0 mph 86 % 0.00 in 0 W/m2
04:28 58.4 °F 54.0 °F 29.70 in West 1.0 mph 3.0 mph 86 % 0.00 in 0 W/m2
04:43 58.4 °F 54.0 °F 29.70 in Calm   2.0 mph 86 % 0.00 in 0 W/m2
04:58 58.1 °F 54.0 °F 29.71 in SW 2.0 mph 4.0 mph 87 % 0.00 in 0 W/m2
05:13 57.9 °F 54.0 °F 29.72 in SSW 3.0 mph 6.0 mph 87 % 0.00 in 0 W/m2
05:28 58.4 °F 54.0 °F 29.72 in SW 3.0 mph 18.0 mph 86 % 0.00 in 0 W/m2
05:43 58.4 °F 54.0 °F 29.73 in NE 1.0 mph 9.0 mph 84 % 0.00 in 0 W/m2
05:58 57.8 °F 53.0 °F 29.72 in SSW 1.0 mph 6.0 mph 84 % 0.00 in 5 W/m2
06:13 57.2 °F 53.0 °F 29.73 in SW 3.0 mph 6.0 mph 85 % 0.00 in 9 W/m2
06:28 56.6 °F 52.0 °F 29.73 in WSW 4.0 mph 10.0 mph 85 % 0.00 in 12 W/m2
06:43 56.1 °F 52.0 °F 29.73 in SSW 2.0 mph 9.0 mph 85 % 0.00 in 18 W/m2
06:58 55.5 °F 51.0 °F 29.74 in SW 4.0 mph 8.0 mph 85 % 0.00 in 60 W/m2
07:13 55.6 °F 51.0 °F 29.74 in South 2.0 mph 7.0 mph 84 % 0.00 in 141 W/m2
07:28 56.4 °F 51.0 °F 29.74 in SW 2.0 mph 10.0 mph 81 % 0.00 in 195 W/m2
07:43 57.1 °F 50.0 °F 29.74 in SW 1.0 mph 13.0 mph 78 % 0.00 in 239 W/m2
07:58 57.5 °F 50.0 °F 29.74 in SW 3.0 mph 14.0 mph 75 % 0.00 in 288 W/m2
08:13 58.2 °F 50.0 °F 29.74 in WNW 3.0 mph 9.0 mph 75 % 0.00 in 330 W/m2
08:28 58.8 °F 50.0 °F 29.74 in SW 7.0 mph 16.0 mph 72 % 0.00 in 376 W/m2
08:44 59.0 °F 50.0 °F 29.74 in SW 8.0 mph 16.0 mph 73 % 0.00 in 418 W/m2
08:59 60.0 °F 51.0 °F 29.74 in NW 6.0 mph 15.0 mph 71 % 0.00 in 459 W/m2
09:14 60.5 °F 50.0 °F 29.74 in SW 11.0 mph 20.0 mph 69 % 0.00 in 501 W/m2
09:29 61.3 °F 51.0 °F 29.73 in SW 9.0 mph 15.0 mph 68 % 0.00 in 585 W/m2
09:59 62.1 °F 49.0 °F 29.73 in SSE 5.0 mph 15.0 mph 62 % 0.00 in 631 W/m2
10:29 63.3 °F 48.0 °F 29.73 in WSW 7.0 mph 11.0 mph 58 % 0.00 in 707 W/m2
10:44 63.2 °F 48.0 °F 29.73 in SE 2.0 mph 14.0 mph 58 % 0.00 in 773 W/m2
10:59 63.9 °F 48.0 °F 29.73 in SW 7.0 mph 12.0 mph 57 % 0.00 in 877 W/m2
11:14 64.3 °F 49.0 °F 29.73 in SW 9.0 mph 20.0 mph 57 % 0.00 in 809 W/m2
11:29 64.9 °F 49.0 °F 29.73 in SW 7.0 mph 13.0 mph 56 % 0.00 in 911 W/m2
11:44 65.3 °F 50.0 °F 29.73 in SW 9.0 mph 16.0 mph 58 % 0.00 in 1035 W/m2
11:59 65.3 °F 50.0 °F 29.73 in SSW 15.0 mph 20.0 mph 59 % 0.00 in 1218 W/m2
12:14 65.1 °F 50.0 °F 29.73 in South 4.0 mph 22.0 mph 58 % 0.00 in 1002 W/m2
12:29 66.0 °F 49.0 °F 29.73 in SW 16.0 mph 18.0 mph 55 % 0.00 in 1107 W/m2
12:44 66.3 °F 49.0 °F 29.72 in SSW 10.0 mph 23.0 mph 54 % 0.00 in 1037 W/m2
12:59 67.0 °F 49.0 °F 29.71 in SW 17.0 mph 17.0 mph 52 % 0.00 in 1132 W/m2
13:14 67.5 °F 48.0 °F 29.71 in West 10.0 mph 22.0 mph 49 % 0.00 in 944 W/m2
13:29 67.6 °F 48.0 °F 29.71 in SSW 17.0 mph 27.0 mph 49 % 0.00 in 327 W/m2
13:44 65.9 °F 47.0 °F 29.71 in South 9.0 mph 20.0 mph 51 % 0.00 in 359 W/m2
13:59 67.2 °F 51.0 °F 29.71 in SW 10.0 mph 18.0 mph 56 % 0.00 in 1095 W/m2
14:14 66.5 °F 48.0 °F 29.71 in SW 5.0 mph 22.0 mph 52 % 0.00 in 359 W/m2
14:29 67.4 °F 48.0 °F 29.70 in East 6.0 mph 22.0 mph 51 % 0.00 in 608 W/m2
14:44 67.4 °F 49.0 °F 29.70 in WSW 9.0 mph 20.0 mph 52 % 0.00 in 438 W/m2
Compliments of Weather Underground - 2.5 mb

28 Visitors online right now
Max visitors today: 28 at 03:50 pm EDT
This month: 34 at 05-06-2016 07:43 pm EDT
This year: 77 at 01-01-2016 11:56 pm EST
All time: 104 at 01-04-2012 03:34 am EST
See Who is Online